SBSP/CGH METAR and TAF weather

Enter ICAO airport designator
Station Type Date Time Source
SBSP METAR 2019/02/16 04:00 UTC NOAA

SBSP 160400Z AUTO VRB02KT 9999 -RA BKN005 BKN008 19/18 Q1011


Station Type Date Time Source
SBSP Decoded METAR 2019/02/16 04:00 UTC NOAA

Sao Paulo/Congonhas Aeroporto, Brazil (SBSP) 23-37S 046-39W 802M
Feb 15, 2019 - 11:00 PM EST / 2019.02.16 0400 UTC
Wind: Variable at 2 MPH (2 KT):0
Visibility: greater than 7 mile(s):0
Sky conditions: mostly cloudy
Weather: light rain
Temperature: 66 F (19 C)
Dew Point: 64 F (18 C)
Relative Humidity: 93%
Pressure (altimeter): 29.85 in. Hg (1011 hPa)
ob: SBSP 160400Z AUTO VRB02KT 9999 -RA BKN005 BKN008 19/18 Q1011
cycle: 4

Station Type Date Time Source
SBSP TAF 2019/02/16 06:12 UTC NOAA

TAF TAF SBSP 160107Z 1606/1706 33010KT 9999 BKN023 TN20/1609Z TX22/1618Z
TEMPO 1606/1612 24005KT 4000 RA BR BKN007
TEMPO 1615/1621 20005KT 3000 TSRA BR BKN009 FEW030CB
BECMG 1621/1623 22005KT 9999 BKN025
RMK PGF


Example: see airport list